createdAt,value
2018-09-13T00:00:59.634Z,81.85
2018-09-13T00:03:28.349Z,82.53
2018-09-13T00:05:57.538Z,81.90
2018-09-13T00:08:26.355Z,82.08
2018-09-13T00:10:55.017Z,82.86
2018-09-13T00:13:23.603Z,83.11
2018-09-13T00:15:52.672Z,82.90
2018-09-13T00:18:21.877Z,82.94
2018-09-13T00:20:51.286Z,83.28
2018-09-13T00:23:19.874Z,83.19
2018-09-13T00:25:55.150Z,84.00
2018-09-13T00:28:24.726Z,83.54
2018-09-13T00:30:54.154Z,84.12
2018-09-13T00:33:22.811Z,84.27
2018-09-13T00:35:51.508Z,84.16
2018-09-13T00:38:20.129Z,84.67
2018-09-13T00:40:55.295Z,84.63
2018-09-13T00:43:23.916Z,84.03
2018-09-13T00:45:52.516Z,83.86
2018-09-13T00:48:21.123Z,84.83
2018-09-13T00:50:49.807Z,84.20
2018-09-13T00:53:18.284Z,84.90
2018-09-13T00:55:46.768Z,84.79
2018-09-13T00:58:15.966Z,85.57
2018-09-13T01:00:45.004Z,85.26
2018-09-13T01:03:13.458Z,86.07
2018-09-13T01:05:42.104Z,85.68
2018-09-13T01:08:10.628Z,85.95
2018-09-13T01:10:39.171Z,85.76
2018-09-13T01:13:07.737Z,86.12
2018-09-13T01:15:36.399Z,85.86
2018-09-13T01:18:04.954Z,86.70
2018-09-13T01:20:33.517Z,86.75
2018-09-13T01:23:03.230Z,87.12
2018-09-13T01:25:31.682Z,86.92
2018-09-13T01:28:00.200Z,87.87
2018-09-13T01:30:31.929Z,86.79
2018-09-13T01:33:00.472Z,86.71
2018-09-13T01:35:28.918Z,87.34
2018-09-13T01:37:57.552Z,87.30
2018-09-13T01:40:26.034Z,86.65
2018-09-13T01:42:54.940Z,86.99
2018-09-13T01:45:24.089Z,87.00
2018-09-13T01:47:53.264Z,87.20
2018-09-13T01:50:21.869Z,86.94
2018-09-13T01:52:50.468Z,87.47
2018-09-13T01:55:18.973Z,87.39
2018-09-13T01:57:47.411Z,87.64
2018-09-13T02:00:16.024Z,87.52
2018-09-13T02:02:44.552Z,87.70
2018-09-13T02:05:13.241Z,88.18
2018-09-13T02:07:42.070Z,88.25
2018-09-13T02:10:10.678Z,87.66
2018-09-13T02:12:39.311Z,87.53
2018-09-13T02:15:08.026Z,87.97
2018-09-13T02:17:36.625Z,88.20
2018-09-13T02:20:05.137Z,87.58
2018-09-13T02:22:33.763Z,87.95
2018-09-13T02:25:02.271Z,87.31
2018-09-13T02:27:30.733Z,87.05
2018-09-13T02:29:59.197Z,87.79
2018-09-13T02:32:27.728Z,86.98
2018-09-13T02:34:56.442Z,87.75
2018-09-13T02:37:25.056Z,87.55
2018-09-13T02:39:53.759Z,87.71
2018-09-13T02:42:22.368Z,88.02
2018-09-13T02:44:50.855Z,87.76
2018-09-13T02:47:19.339Z,88.48
2018-09-13T02:49:48.019Z,87.78
2018-09-13T02:52:16.628Z,88.40
2018-09-13T02:54:45.180Z,87.95
2018-09-13T02:57:13.813Z,88.23
2018-09-13T02:59:42.308Z,89.10
2018-09-13T03:02:10.924Z,89.17
2018-09-13T03:04:39.440Z,88.60
2018-09-13T03:07:08.419Z,88.68
2018-09-13T03:09:36.893Z,88.76
2018-09-13T03:12:05.371Z,89.09
2018-09-13T03:14:33.868Z,89.39
2018-09-13T03:17:02.274Z,89.37
2018-09-13T03:19:30.836Z,89.20
2018-09-13T03:21:59.487Z,89.44
2018-09-13T03:24:27.996Z,88.93
2018-09-13T03:26:56.568Z,89.76
2018-09-13T03:29:25.165Z,89.15
2018-09-13T03:31:53.619Z,89.97
2018-09-13T03:34:22.273Z,89.05
2018-09-13T03:36:50.852Z,89.27
2018-09-13T03:39:19.359Z,89.35
2018-09-13T03:41:47.821Z,89.38
2018-09-13T03:44:16.353Z,89.62
2018-09-13T03:46:44.816Z,89.31
2018-09-13T03:49:13.261Z,89.08
2018-09-13T03:51:41.689Z,89.54
2018-09-13T03:54:10.867Z,89.82
2018-09-13T03:56:39.996Z,89.70
2018-09-13T03:59:08.882Z,89.89
2018-09-13T04:01:37.437Z,89.29
2018-09-13T04:04:06.128Z,89.63
2018-09-13T04:06:34.584Z,89.75
2018-09-13T04:09:03.389Z,89.95
2018-09-13T04:11:31.812Z,89.73
2018-09-13T04:14:01.082Z,90.36
2018-09-13T04:16:29.812Z,89.62
2018-09-13T04:18:58.332Z,89.64
2018-09-13T04:21:26.733Z,89.79
2018-09-13T04:23:55.538Z,90.36
2018-09-13T04:26:24.003Z,89.54
2018-09-13T04:28:52.981Z,89.60
2018-09-13T04:31:21.565Z,89.68
2018-09-13T04:33:50.024Z,89.07
2018-09-13T04:36:18.576Z,88.93
2018-09-13T04:38:48.063Z,89.72
2018-09-13T04:41:16.721Z,88.80
2018-09-13T04:43:45.218Z,89.35
2018-09-13T04:46:13.685Z,89.02
2018-09-13T04:48:42.304Z,89.87
2018-09-13T04:51:15.082Z,89.30
2018-09-13T04:53:43.548Z,89.57
2018-09-13T04:56:13.172Z,89.87
2018-09-13T04:58:42.635Z,89.38
2018-09-13T05:01:11.219Z,89.51
2018-09-13T05:03:39.834Z,90.10
2018-09-13T05:06:15.352Z,89.59
2018-09-13T05:08:44.388Z,89.98
2018-09-13T05:11:12.923Z,90.55
2018-09-13T05:13:41.472Z,90.30
2018-09-13T05:16:10.468Z,90.03
2018-09-13T05:18:38.903Z,90.80
2018-09-13T05:21:07.486Z,90.50
2018-09-13T05:23:35.953Z,90.03
2018-09-13T05:26:04.653Z,89.90
2018-09-13T05:28:33.260Z,90.11
2018-09-13T05:31:01.939Z,89.93
2018-09-13T05:33:30.451Z,90.10
2018-09-13T05:35:59.016Z,89.73
2018-09-13T05:38:27.645Z,89.56
2018-09-13T05:40:56.187Z,90.05
2018-09-13T05:43:24.903Z,89.91
2018-09-13T05:45:54.201Z,89.84
2018-09-13T05:48:22.923Z,89.83
2018-09-13T05:50:51.366Z,90.01
2018-09-13T05:53:20.113Z,90.33
2018-09-13T05:55:48.560Z,90.52
2018-09-13T05:58:17.124Z,90.26
2018-09-13T06:00:45.765Z,90.26
2018-09-13T06:03:14.394Z,90.25
2018-09-13T06:05:42.984Z,89.84
2018-09-13T06:08:11.481Z,90.48
2018-09-13T06:10:39.926Z,89.76
2018-09-13T06:13:08.673Z,90.18
2018-09-13T06:15:37.223Z,89.95
2018-09-13T06:18:05.893Z,89.81
2018-09-13T06:20:34.509Z,90.08
2018-09-13T06:23:03.084Z,90.60
2018-09-13T06:25:31.554Z,90.25
2018-09-13T06:28:00.658Z,89.78
2018-09-13T06:30:35.763Z,90.64
2018-09-13T06:33:09.656Z,90.60
2018-09-13T06:35:38.487Z,89.84
2018-09-13T06:38:10.588Z,90.19
2018-09-13T06:40:39.820Z,90.37
2018-09-13T06:43:14.995Z,90.14
2018-09-13T06:45:44.557Z,90.58
2018-09-13T06:48:13.584Z,90.26
2018-09-13T06:50:44.176Z,90.04
2018-09-13T06:53:13.108Z,90.61
2018-09-13T06:55:41.831Z,89.66
2018-09-13T06:58:11.653Z,89.67
2018-09-13T07:00:41.053Z,89.51
2018-09-13T07:03:09.652Z,89.21
2018-09-13T07:05:38.289Z,89.20
2018-09-13T07:08:07.075Z,89.77
2018-09-13T07:10:35.563Z,89.88
2018-09-13T07:13:04.085Z,89.65
2018-09-13T07:15:32.722Z,90.13
2018-09-13T07:18:01.316Z,89.80
2018-09-13T07:20:30.051Z,89.61
2018-09-13T07:22:58.723Z,90.28
2018-09-13T07:25:27.365Z,89.45
2018-09-13T07:27:56.269Z,89.95
2018-09-13T07:30:24.779Z,88.65
2018-09-13T07:32:53.262Z,88.93
2018-09-13T07:35:21.903Z,89.16
2018-09-13T07:37:50.397Z,88.71
2018-09-13T07:40:19.032Z,88.41
2018-09-13T07:42:48.266Z,88.69
2018-09-13T07:45:16.828Z,88.25
2018-09-13T07:47:45.342Z,89.03
2018-09-13T07:50:14.253Z,89.30
2018-09-13T07:52:42.780Z,88.43
2018-09-13T07:55:11.341Z,88.48
2018-09-13T07:57:39.777Z,88.66
2018-09-13T08:00:08.593Z,88.22
2018-09-13T08:02:37.188Z,88.26
2018-09-13T08:05:06.961Z,88.13
2018-09-13T08:07:35.407Z,88.28
2018-09-13T08:10:04.033Z,88.51
2018-09-13T08:12:33.498Z,88.55
2018-09-13T08:15:02.026Z,88.40
2018-09-13T08:17:30.553Z,88.20
2018-09-13T08:19:59.054Z,88.09
2018-09-13T08:22:27.790Z,87.94
2018-09-13T08:24:56.295Z,88.09
2018-09-13T08:27:24.830Z,87.57
2018-09-13T08:29:53.577Z,88.35
2018-09-13T08:32:22.142Z,88.21
2018-09-13T08:34:50.763Z,87.83
2018-09-13T08:37:19.195Z,88.25
2018-09-13T08:39:47.960Z,87.41
2018-09-13T08:42:17.682Z,87.32
2018-09-13T08:44:47.199Z,87.45
2018-09-13T08:47:16.111Z,87.57
2018-09-13T08:49:45.016Z,86.90
2018-09-13T08:52:13.665Z,86.44
2018-09-13T08:54:42.146Z,86.65
2018-09-13T08:57:10.807Z,85.98
2018-09-13T08:59:39.336Z,86.64
2018-09-13T09:02:07.947Z,86.30
2018-09-13T09:04:36.660Z,85.54
2018-09-13T09:07:06.236Z,86.33
2018-09-13T09:09:34.824Z,85.77
2018-09-13T09:12:03.491Z,86.03
2018-09-13T09:14:32.021Z,86.02
2018-09-13T09:17:00.548Z,86.09
2018-09-13T09:19:29.008Z,85.33
2018-09-13T09:21:57.466Z,85.27
2018-09-13T09:24:26.830Z,84.69
2018-09-13T09:26:55.532Z,83.86
2018-09-13T09:29:24.173Z,83.85
2018-09-13T09:31:52.657Z,84.78
2018-09-13T09:34:21.224Z,84.88
2018-09-13T09:36:49.888Z,84.45
2018-09-13T09:39:18.595Z,84.61
2018-09-13T09:41:47.369Z,83.84
2018-09-13T09:44:16.137Z,83.22
2018-09-13T09:46:44.915Z,83.29
2018-09-13T09:49:13.382Z,82.91
2018-09-13T09:51:41.930Z,83.22
2018-09-13T09:54:10.388Z,82.42
2018-09-13T09:56:38.940Z,82.48
2018-09-13T09:59:07.677Z,82.40
2018-09-13T10:01:40.409Z,82.99
2018-09-13T10:04:08.895Z,81.79
2018-09-13T10:06:37.440Z,82.66
2018-09-13T10:09:08.129Z,82.54
2018-09-13T10:11:36.600Z,81.62
2018-09-13T10:14:05.406Z,81.98
2018-09-13T10:16:39.061Z,81.25
2018-09-13T10:19:13.030Z,81.64
2018-09-13T10:21:46.777Z,81.04
2018-09-13T10:24:20.509Z,80.65
2018-09-13T10:26:54.372Z,79.98
2018-09-13T10:29:28.198Z,80.72
2018-09-13T10:32:01.825Z,80.44
2018-09-13T10:34:35.875Z,79.97
2018-09-13T10:37:09.802Z,79.86
2018-09-13T10:39:43.580Z,78.89
2018-09-13T10:42:17.233Z,79.56
2018-09-13T10:44:51.186Z,78.48
2018-09-13T10:47:25.306Z,79.21
2018-09-13T10:49:59.377Z,78.81
2018-09-13T10:52:31.031Z,78.27
2018-09-13T10:54:59.611Z,77.43
2018-09-13T10:57:33.848Z,77.20
2018-09-13T11:00:02.398Z,77.23
2018-09-13T11:02:30.858Z,76.06
2018-09-13T11:04:59.441Z,74.97
2018-09-13T11:07:27.932Z,75.91
2018-09-13T11:09:56.885Z,75.22
2018-09-13T11:12:31.439Z,74.28
2018-09-13T11:15:04.084Z,74.01
2018-09-13T11:17:33.069Z,72.47
2018-09-13T11:20:01.501Z,73.50
2018-09-13T11:22:30.344Z,73.68
2018-09-13T11:24:58.981Z,73.43
2018-09-13T11:27:27.573Z,71.96
2018-09-13T11:29:56.061Z,72.39
2018-09-13T11:32:25.576Z,72.81
2018-09-13T11:34:54.310Z,71.10
2018-09-13T11:37:23.207Z,71.18
2018-09-13T11:39:51.705Z,69.33
2018-09-13T11:42:20.426Z,70.24
2018-09-13T11:44:49.318Z,70.13
2018-09-13T11:47:17.949Z,68.73
2018-09-13T11:49:46.490Z,68.85
2018-09-13T11:52:15.057Z,68.42
2018-09-13T11:54:43.616Z,67.33
2018-09-13T11:57:12.242Z,68.31
2018-09-13T11:59:40.791Z,66.70
2018-09-13T12:02:09.422Z,66.18
2018-09-13T12:04:38.729Z,64.12
2018-09-13T12:07:07.201Z,63.61
2018-09-13T12:09:35.904Z,63.67
2018-09-13T12:12:04.260Z,62.39
2018-09-13T12:14:33.177Z,63.57
2018-09-13T12:17:01.671Z,64.02
2018-09-13T12:19:30.453Z,62.77
2018-09-13T12:21:59.029Z,62.76
2018-09-13T12:24:28.093Z,62.42
2018-09-13T12:26:57.760Z,62.57
2018-09-13T12:29:26.530Z,63.05
2018-09-13T12:31:55.231Z,62.60
2018-09-13T12:34:23.972Z,62.11
2018-09-13T12:36:53.612Z,60.02
2018-09-13T12:39:22.406Z,60.21
2018-09-13T12:41:51.405Z,59.51
2018-09-13T12:44:19.944Z,58.48
2018-09-13T12:46:48.709Z,59.12
2018-09-13T12:49:17.351Z,60.12
2018-09-13T12:51:45.778Z,60.05
2018-09-13T12:54:14.337Z,60.56
2018-09-13T12:56:42.867Z,61.05
2018-09-13T12:59:11.338Z,61.15
2018-09-13T13:01:40.117Z,59.96
2018-09-13T13:04:08.564Z,60.01
2018-09-13T13:06:37.236Z,58.87
2018-09-13T13:09:08.250Z,57.68
2018-09-13T13:11:36.876Z,57.79
2018-09-13T13:14:05.438Z,57.78
2018-09-13T13:16:34.487Z,57.11
2018-09-13T13:19:02.852Z,58.10
2018-09-13T13:21:31.596Z,58.39
2018-09-13T13:24:00.069Z,57.75
2018-09-13T13:26:28.708Z,59.13
2018-09-13T13:28:57.804Z,59.50
2018-09-13T13:31:26.342Z,59.38
2018-09-13T13:33:54.839Z,60.06
2018-09-13T13:36:23.599Z,60.16
2018-09-13T13:38:52.055Z,59.57
2018-09-13T13:41:20.580Z,58.81
2018-09-13T13:43:49.152Z,59.24
2018-09-13T13:46:17.580Z,58.50
2018-09-13T13:48:46.437Z,56.78
2018-09-13T13:51:15.056Z,56.18
2018-09-13T13:53:43.887Z,55.58
2018-09-13T13:56:12.529Z,52.88
2018-09-13T13:58:42.369Z,53.68
2018-09-13T14:01:10.948Z,54.63
2018-09-13T14:03:39.637Z,54.35
2018-09-13T14:06:08.971Z,54.17
2018-09-13T14:08:37.493Z,51.90
2018-09-13T14:11:06.315Z,52.15
2018-09-13T14:13:35.426Z,50.63
2018-09-13T14:16:04.114Z,49.73
2018-09-13T14:18:32.829Z,48.70
2018-09-13T14:21:01.314Z,48.70
2018-09-13T14:23:29.873Z,48.65
2018-09-13T14:25:58.625Z,48.65
2018-09-13T14:28:27.932Z,49.98
2018-09-13T14:30:56.453Z,49.94
2018-09-13T14:33:25.291Z,51.59
2018-09-13T14:35:54.032Z,50.21
2018-09-13T14:38:22.972Z,49.25
2018-09-13T14:40:51.485Z,48.61
2018-09-13T14:43:20.095Z,51.08
2018-09-13T14:45:48.637Z,50.48
2018-09-13T14:48:17.345Z,51.68
2018-09-13T14:50:45.900Z,51.03
2018-09-13T14:53:14.411Z,51.81
2018-09-13T14:55:43.680Z,52.02
2018-09-13T14:58:12.362Z,51.68
2018-09-13T15:00:41.027Z,50.99
2018-09-13T15:03:09.658Z,50.97
2018-09-13T15:05:38.340Z,51.03
2018-09-13T15:08:07.054Z,52.35
2018-09-13T15:10:35.568Z,51.55
2018-09-13T15:13:04.941Z,52.31
2018-09-13T15:15:34.166Z,51.50
2018-09-13T15:18:02.713Z,52.54
2018-09-13T15:20:31.224Z,51.98
2018-09-13T15:23:00.345Z,52.69
2018-09-13T15:25:28.903Z,52.02
2018-09-13T15:27:57.369Z,51.18
2018-09-13T15:30:25.895Z,50.43
2018-09-13T15:32:54.394Z,50.40
2018-09-13T15:35:22.996Z,49.78
2018-09-13T15:37:58.632Z,50.32
2018-09-13T15:40:27.158Z,51.22
2018-09-13T15:42:55.793Z,51.91
2018-09-13T15:45:24.310Z,52.17
2018-09-13T15:47:52.909Z,51.14
2018-09-13T15:50:21.391Z,52.16
2018-09-13T15:52:49.998Z,51.87
2018-09-13T15:55:19.349Z,51.23
2018-09-13T15:57:47.969Z,51.08
2018-09-13T16:00:16.554Z,51.50
2018-09-13T16:02:45.105Z,52.23
2018-09-13T16:05:13.617Z,52.19
2018-09-13T16:07:42.365Z,51.67
2018-09-13T16:10:10.873Z,51.51
2018-09-13T16:12:39.526Z,51.73
2018-09-13T16:15:07.935Z,51.75
2018-09-13T16:17:36.586Z,51.33
2018-09-13T16:20:05.492Z,50.75
2018-09-13T16:22:34.109Z,50.96
2018-09-13T16:25:02.689Z,50.66
2018-09-13T16:27:31.236Z,50.22
2018-09-13T16:30:00.717Z,51.65
2018-09-13T16:32:29.343Z,50.58
2018-09-13T16:34:59.729Z,50.77
2018-09-13T16:37:33.991Z,51.74
2018-09-13T16:41:08.450Z,51.19
2018-09-13T16:43:42.562Z,51.75
2018-09-13T16:46:17.832Z,51.81
2018-09-13T16:48:46.399Z,52.14
2018-09-13T16:51:15.005Z,52.58
2018-09-13T16:53:43.637Z,52.15
2018-09-13T16:56:12.329Z,52.06
2018-09-13T16:58:40.842Z,53.31
2018-09-13T17:01:09.419Z,52.81
2018-09-13T17:03:37.908Z,53.16
2018-09-13T17:06:06.766Z,53.08
2018-09-13T17:08:38.252Z,53.42
2018-09-13T17:11:06.879Z,53.94
2018-09-13T17:13:35.826Z,53.14
2018-09-13T17:16:04.366Z,53.61
2018-09-13T17:18:32.924Z,54.41
2018-09-13T17:21:01.512Z,54.63
2018-09-13T17:26:26.397Z,54.30
2018-09-13T17:28:54.877Z,55.06
2018-09-13T17:31:24.578Z,55.56
2018-09-13T17:33:53.247Z,55.98
2018-09-13T17:36:21.720Z,56.49
2018-09-13T17:38:50.569Z,56.53
2018-09-13T17:41:19.246Z,56.41
2018-09-13T17:43:47.952Z,56.97
2018-09-13T17:46:16.931Z,57.05
2018-09-13T17:48:45.683Z,57.98
2018-09-13T17:51:14.671Z,58.52
2018-09-13T17:53:47.714Z,57.96
2018-09-13T17:56:16.678Z,59.02
2018-09-13T17:58:45.740Z,59.12
2018-09-13T18:01:14.426Z,58.99
2018-09-13T18:03:43.441Z,59.44
2018-09-13T18:06:12.071Z,59.56
2018-09-13T18:08:40.900Z,59.36
2018-09-13T18:11:09.524Z,59.52
2018-09-13T18:13:38.651Z,59.34
2018-09-13T18:16:07.286Z,60.22
2018-09-13T18:18:36.157Z,60.23
2018-09-13T18:21:11.377Z,60.28
2018-09-13T18:23:40.239Z,60.26
2018-09-13T18:26:08.942Z,60.59
2018-09-13T18:28:38.283Z,60.20
2018-09-13T18:31:09.180Z,60.85
2018-09-13T18:33:37.975Z,60.60
2018-09-13T18:36:06.796Z,61.28
2018-09-13T18:38:36.331Z,61.12
2018-09-13T18:41:05.388Z,61.35
2018-09-13T18:43:34.018Z,61.77
2018-09-13T18:46:03.495Z,61.79
2018-09-13T18:48:32.208Z,61.73
2018-09-13T18:51:00.754Z,62.33
2018-09-13T18:53:29.616Z,63.17
2018-09-13T18:56:00.232Z,62.94
2018-09-13T18:58:35.562Z,62.34
2018-09-13T19:01:09.507Z,62.41
2018-09-13T19:03:40.195Z,63.14
2018-09-13T19:06:12.972Z,63.22
2018-09-13T19:08:41.676Z,63.38
2018-09-13T19:11:11.986Z,62.79
2018-09-13T19:13:42.431Z,63.94
2018-09-13T19:16:12.914Z,64.31
2018-09-13T19:18:43.158Z,63.64
2018-09-13T19:21:12.455Z,63.11
2018-09-13T19:23:41.403Z,62.72
2018-09-13T19:26:10.050Z,63.13
2018-09-13T19:28:39.786Z,63.55
2018-09-13T19:31:08.978Z,62.95
2018-09-13T19:33:38.455Z,63.30
2018-09-13T19:36:15.478Z,62.86
2018-09-13T19:38:49.447Z,62.73
2018-09-13T19:41:20.704Z,62.23
2018-09-13T19:43:51.006Z,62.46
2018-09-13T19:46:20.080Z,62.93
2018-09-13T19:48:48.938Z,63.41
2018-09-13T19:51:17.917Z,63.09
2018-09-13T19:53:46.709Z,63.47
2018-09-13T19:56:15.430Z,62.94
2018-09-13T19:58:51.082Z,63.53
2018-09-13T20:01:19.779Z,63.78
2018-09-13T20:03:49.011Z,63.59
2018-09-13T20:06:17.998Z,63.29
2018-09-13T20:08:46.913Z,63.98
2018-09-13T20:11:15.952Z,63.71
2018-09-13T20:13:45.701Z,64.16
2018-09-13T20:16:14.563Z,64.03
2018-09-13T20:18:44.248Z,63.55
2018-09-13T20:21:13.138Z,63.36
2018-09-13T20:23:41.875Z,63.23
2018-09-13T20:26:10.798Z,63.34
2018-09-13T20:28:39.378Z,62.98
2018-09-13T20:31:10.110Z,63.44
2018-09-13T20:33:39.111Z,63.71
2018-09-13T20:36:07.623Z,64.26
2018-09-13T20:38:36.572Z,63.92
2018-09-13T20:41:05.533Z,64.01
2018-09-13T20:43:38.375Z,63.71
2018-09-13T20:46:07.240Z,63.50
2018-09-13T20:48:35.721Z,63.32
2018-09-13T20:51:04.831Z,63.52
2018-09-13T20:53:33.673Z,63.38
2018-09-13T20:56:02.295Z,62.95
2018-09-13T20:58:30.985Z,63.03
2018-09-13T21:00:59.697Z,62.88
2018-09-13T21:03:28.452Z,62.52
2018-09-13T21:05:57.231Z,62.43
2018-09-13T21:08:25.957Z,62.53
2018-09-13T21:10:54.868Z,62.43
2018-09-13T21:13:24.245Z,61.70
2018-09-13T21:15:52.979Z,61.39
2018-09-13T21:18:21.601Z,61.93
2018-09-13T21:20:50.603Z,61.61
2018-09-13T21:23:19.083Z,62.13
2018-09-13T21:25:47.944Z,61.58
2018-09-13T21:28:16.878Z,61.76
2018-09-13T21:30:45.729Z,62.70
2018-09-13T21:33:14.794Z,62.23
2018-09-13T21:35:43.845Z,62.05
2018-09-13T21:38:13.036Z,62.07
2018-09-13T21:40:41.839Z,62.93
2018-09-13T21:43:11.209Z,62.50
2018-09-13T21:45:39.721Z,62.46
2018-09-13T21:48:09.035Z,63.17
2018-09-13T21:50:37.552Z,63.33
2018-09-13T21:53:06.767Z,63.13
2018-09-13T21:55:35.563Z,63.90
2018-09-13T21:58:04.269Z,63.93
2018-09-13T22:00:33.948Z,63.33
2018-09-13T22:03:03.023Z,63.28
2018-09-13T22:05:32.329Z,64.36
2018-09-13T22:08:01.292Z,64.62
2018-09-13T22:10:30.454Z,64.54
2018-09-13T22:12:59.561Z,64.34
2018-09-13T22:15:28.418Z,64.61
2018-09-13T22:17:57.122Z,64.95
2018-09-13T22:20:25.746Z,64.56
2018-09-13T22:22:54.456Z,64.84
2018-09-13T22:25:22.885Z,65.03
2018-09-13T22:27:51.496Z,65.09
2018-09-13T22:30:19.993Z,65.24
2018-09-13T22:32:49.889Z,65.07
2018-09-13T22:35:19.285Z,65.60
2018-09-13T22:37:47.803Z,64.70
2018-09-13T22:40:16.363Z,65.43
2018-09-13T22:42:44.975Z,66.08
2018-09-13T22:45:13.461Z,66.23
2018-09-13T22:47:41.973Z,66.33
2018-09-13T22:50:10.528Z,66.00
2018-09-13T22:52:39.051Z,65.83
2018-09-13T22:55:07.734Z,66.02
2018-09-13T22:57:36.198Z,66.22
2018-09-13T23:00:05.642Z,65.83
2018-09-13T23:02:39.449Z,66.05
2018-09-13T23:05:08.110Z,65.89
2018-09-13T23:07:36.665Z,66.25
2018-09-13T23:10:05.943Z,66.13
2018-09-13T23:12:34.454Z,66.69
2018-09-13T23:15:03.037Z,66.99
2018-09-13T23:17:31.676Z,66.41
2018-09-13T23:20:00.205Z,66.72
2018-09-13T23:22:28.778Z,66.71
2018-09-13T23:24:57.276Z,65.97
2018-09-13T23:27:25.965Z,66.51
2018-09-13T23:29:55.208Z,67.61
2018-09-13T23:32:23.738Z,67.01
2018-09-13T23:34:52.482Z,67.18
2018-09-13T23:37:21.632Z,67.57
2018-09-13T23:39:50.321Z,67.56
2018-09-13T23:42:18.896Z,67.74
2018-09-13T23:44:47.992Z,67.88
2018-09-13T23:47:17.095Z,68.21
2018-09-13T23:49:45.520Z,68.21
2018-09-13T23:52:14.111Z,68.14
2018-09-13T23:54:42.781Z,67.72
2018-09-13T23:57:11.313Z,68.32
2018-09-13T23:59:39.920Z,68.90
